Weather at Ottawa / Manotick (Hope Field)

Public forecast

Using degrees Celsius for public forecast. Weather courtesy of forecast.io.

Closest aviation weather report (METAR) to Ottawa / Manotick (Hope Field)

Closest report is Ottawa Macdonald-Cartier International Airport, 8.1 nm (15.0 km) NNE.

2024/07/24 23:00 (retrieved 59 minutes ago)

CYOW 242300Z CCA 12006KT 15SM SCT060 BKN100 20/20 A2995 RMK SC3AC4 SLP145 DENSITY ALT 1000FT

Closest aviation forecast (TAF) to Ottawa / Manotick (Hope Field)

Closest forecast is Ottawa Macdonald-Cartier International Airport, 8.1 nm (15.0 km) NNE.

2024/07/24 21:51 Ammendment (retrieved 2 hours ago)

TAF AMD CYOW 242145Z 2421/2518 18008KT P6SM BKN050 TEMPO 2421/2502 5SM -SHRA BR PROB30 2500/2502 VRB20G30KT 2SM TSRA BR OVC020CB FM250200 22007KT P6SM -SHRA BKN015 OVC050 FM250700 24008KT P6SM SCT007 BKN020 PROB30 2507/2512 5SM -SHRA BR BKN007 OVC020 FM251400 26012KT P6SM BKN030 BECMG 2515/2517 27012G22KT RMK NXT FCST BY 250000Z